Time;durP1;ratioP1;P1;durP2;ratioP2;P2;SDS_P1;SDS_P2;PMS_P1;PMS_P2;Temp;Humidity;BMP_temperature;BMP_pressure;BME280_temperature;BME280_humidity;BME280_pressure;Samples;Min_cycle;Max_cycle;Signal;HPM_P1;HPM_P2
2023/05/15 00:00:09;;;;;;;6.50;3.53;;;;;;;11.61;100.00;64166.66;5071640;28;20247;-60
2023/05/15 00:02:36;;;;;;;5.07;3.90;;;;;;;11.85;100.00;64194.94;5071443;28;20686;-59
2023/05/15 00:05:03;;;;;;;4.03;3.30;;;;;;;11.82;100.00;64189.69;5070615;28;20221;-59
2023/05/15 00:07:29;;;;;;;4.80;4.23;;;;;;;11.86;100.00;64193.50;5071247;28;20269;-60
2023/05/15 00:09:54;;;;;;;6.30;4.03;;;;;;;11.82;100.00;64191.13;5071386;28;20612;-55
2023/05/15 00:12:20;;;;;;;5.87;4.37;;;;;;;11.50;100.00;64154.59;5071481;28;20217;-56
2023/05/15 00:14:45;;;;;;;5.43;4.83;;;;;;;11.52;100.00;64158.75;5071226;28;20281;-56
2023/05/15 00:17:11;;;;;;;6.47;4.27;;;;;;;11.26;100.00;64128.31;5071475;28;20248;-55
2023/05/15 00:19:37;;;;;;;5.03;4.03;;;;;;;11.32;100.00;64136.84;5071174;28;20214;-56
2023/05/15 00:22:02;;;;;;;6.10;4.13;;;;;;;11.46;100.00;64147.69;5071240;28;20208;-56
2023/05/15 00:24:28;;;;;;;7.03;4.57;;;;;;;11.52;100.00;64159.31;5071118;28;20353;-57
2023/05/15 00:26:53;;;;;;;5.60;4.50;;;;;;;11.49;100.00;64152.97;5071128;28;20201;-56
2023/05/15 00:29:18;;;;;;;6.17;4.50;;;;;;;11.30;100.00;64135.22;5070945;28;20594;-55
2023/05/15 00:31:44;;;;;;;5.17;4.03;;;;;;;11.38;100.00;64140.91;5071083;28;20217;-56
2023/05/15 00:34:09;;;;;;;5.73;5.13;;;;;;;11.42;100.00;64148.34;5070920;28;20200;-59
2023/05/15 00:36:35;;;;;;;5.90;4.00;;;;;;;11.44;100.00;64150.56;5071041;28;20189;-59
2023/05/15 00:39:00;;;;;;;5.70;3.87;;;;;;;11.31;100.00;64133.78;5070765;28;20192;-60
2023/05/15 00:41:27;;;;;;;9.40;4.13;;;;;;;11.31;100.00;64136.28;5070754;28;20189;-60
2023/05/15 00:43:54;;;;;;;6.47;4.17;;;;;;;11.44;100.00;64147.47;5070715;28;20201;-59
2023/05/15 00:46:21;;;;;;;7.77;4.40;;;;;;;11.56;100.00;64163.16;5070741;28;20192;-59
2023/05/15 00:48:49;;;;;;;4.10;3.60;;;;;;;11.77;100.00;64183.66;5070508;28;20212;-59
2023/05/15 00:51:16;;;;;;;6.77;4.03;;;;;;;11.59;100.00;64167.00;5070518;28;20216;-60
2023/05/15 00:53:42;;;;;;;4.67;4.00;;;;;;;11.39;100.00;64142.00;5070756;28;20315;-59
2023/05/15 00:56:09;;;;;;;3.57;3.27;;;;;;;11.47;100.00;64150.78;5070387;28;20188;-59
2023/05/15 00:58:36;;;;;;;4.20;3.80;;;;;;;11.55;100.00;64159.53;5070386;28;20242;-60
2023/05/15 01:01:01;;;;;;;5.20;4.00;;;;;;;11.57;100.00;64161.72;5070605;28;20239;-59
2023/05/15 01:03:27;;;;;;;4.10;3.27;;;;;;;11.74;100.00;64178.41;5070385;28;20196;-59
2023/05/15 01:05:53;;;;;;;5.30;3.10;;;;;;;11.55;100.00;64160.06;5070534;28;20180;-58
2023/05/15 01:08:42;;;;;;;4.37;3.87;;;;;;;11.61;100.00;64166.66;5070757;28;20728;-59
2023/05/15 01:11:09;;;;;;;3.77;3.30;;;;;;;11.72;100.00;64181.25;5070534;28;20214;-58
2023/05/15 01:13:34;;;;;;;4.73;3.87;;;;;;;11.31;100.00;64131.25;5070119;28;20274;-58
2023/05/15 01:16:00;;;;;;;5.17;3.67;;;;;;;11.13;100.00;64114.06;5070292;28;20193;-58
2023/05/15 01:18:31;;;;;;;4.60;4.00;;;;;;;10.87;100.00;64085.59;5070488;28;20707;-59
2023/05/15 01:21:06;;;;;;;7.13;4.13;;;;;;;10.88;100.00;64086.69;5070516;28;20196;-60
2023/05/15 01:23:38;;;;;;;4.67;3.77;;;;;;;10.78;100.00;64073.78;5070218;28;20258;-60
2023/05/15 01:26:33;;;;;;;5.67;4.17;;;;;;;10.97;100.00;64099.06;5070215;28;20185;-60
2023/05/15 01:29:13;;;;;;;6.13;4.23;;;;;;;11.16;100.00;64117.34;5028970;28;20217;-60
2023/05/15 01:31:42;;;;;;;4.20;3.80;;;;;;;11.27;100.00;64129.41;5070073;28;20304;-60
2023/05/15 01:34:09;;;;;;;5.00;3.90;;;;;;;11.28;100.00;64130.50;5070298;28;20206;-59
2023/05/15 01:36:42;;;;;;;5.03;3.67;;;;;;;11.21;100.00;64122.81;5069989;28;20195;-60
2023/05/15 01:39:09;;;;;;;7.60;3.97;;;;;;;11.27;100.00;64129.41;5069930;28;20204;-55
2023/05/15 01:41:50;;;;;;;5.53;3.70;;;;;;;11.25;100.00;64127.19;5070020;28;20188;-57
2023/05/15 01:44:27;;;;;;;4.07;3.60;;;;;;;11.26;100.00;64128.31;5070012;28;20208;-55
2023/05/15 01:46:57;;;;;;;4.70;3.93;;;;;;;11.55;100.00;64157.00;5070159;28;20193;-56
2023/05/15 01:49:26;;;;;;;6.10;4.03;;;;;;;11.44;100.00;64147.47;5069804;28;20258;-55
2023/05/15 01:52:05;;;;;;;7.47;4.33;;;;;;;11.33;100.00;64135.44;5069820;28;20228;-56
2023/05/15 01:54:33;;;;;;;5.47;4.10;;;;;;;11.20;100.00;64121.19;5069764;28;20205;-57
2023/05/15 01:56:59;;;;;;;9.03;4.67;;;;;;;11.27;100.00;64131.91;5069699;28;20663;-56
2023/05/15 01:59:26;;;;;;;4.87;4.10;;;;;;;11.20;100.00;64121.75;5069667;28;20266;-60
2023/05/15 02:01:52;;;;;;;5.70;3.90;;;;;;;11.20;100.00;64124.25;5070031;28;20248;-59
2023/05/15 02:04:19;;;;;;;4.80;4.03;;;;;;;11.27;100.00;64126.34;5069765;28;20652;-60
2023/05/15 02:06:46;;;;;;;6.60;4.43;;;;;;;11.36;100.00;64136.75;5069788;28;20196;-59
2023/05/15 02:09:13;;;;;;;5.90;4.00;;;;;;;11.42;100.00;64145.84;5069628;28;20287;-59
2023/05/15 02:11:39;;;;;;;4.63;4.23;;;;;;;11.22;100.00;64123.94;5069693;28;20216;-58
2023/05/15 02:14:05;;;;;;;4.97;4.47;;;;;;;11.07;100.00;64107.50;5069501;28;20209;-59
2023/05/15 02:16:31;;;;;;;6.60;4.20;;;;;;;11.14;100.00;64115.16;5069552;28;20185;-58
2023/05/15 02:18:56;;;;;;;5.43;4.73;;;;;;;11.25;100.00;64126.66;5069425;28;20242;-59
2023/05/15 02:21:21;;;;;;;5.30;4.30;;;;;;;11.42;100.00;64148.34;5068266;28;20612;-60
2023/05/15 02:23:47;;;;;;;6.33;4.10;;;;;;;11.31;100.00;64133.25;5069655;28;20200;-60
2023/05/15 02:26:42;;;;;;;6.70;4.87;;;;;;;11.31;100.00;64133.78;5069523;28;20728;-59
2023/05/15 02:29:21;;;;;;;6.10;4.77;;;;;;;11.38;100.00;64141.44;5071038;28;20209;-59
2023/05/15 02:32:13;;;;;;;5.97;4.53;;;;;;;11.40;100.00;64148.69;5073127;28;20208;-59
2023/05/15 02:34:51;;;;;;;5.37;4.43;;;;;;;11.43;100.00;64146.38;5072844;28;20212;-58
2023/05/15 02:37:22;;;;;;;5.87;4.43;;;;;;;11.53;100.00;64154.81;5073061;28;20185;-57
2023/05/15 02:39:52;;;;;;;6.60;4.57;;;;;;;11.25;100.00;64124.16;5072830;28;20200;-57
2023/05/15 02:42:18;;;;;;;5.47;4.53;;;;;;;11.29;100.00;64134.09;5073095;28;20181;-57
2023/05/15 02:44:45;;;;;;;8.00;5.13;;;;;;;11.27;100.00;64131.91;5073048;28;20193;-57
2023/05/15 02:47:11;;;;;;;8.13;5.13;;;;;;;11.37;100.00;64139.81;5072974;28;20185;-56
2023/05/15 02:49:38;;;;;;;6.57;5.30;;;;;;;11.25;100.00;64126.66;5072524;28;20218;-55
2023/05/15 02:52:04;;;;;;;7.20;5.60;;;;;;;10.95;100.00;64094.34;5072934;28;20209;-56
2023/05/15 02:54:29;;;;;;;7.63;5.80;;;;;;;10.93;100.00;64095.22;5072642;28;20235;-56
2023/05/15 02:56:54;;;;;;;9.93;5.90;;;;;;;10.98;100.00;64098.19;5072857;28;20268;-56
2023/05/15 02:59:20;;;;;;;8.77;6.87;;;;;;;10.95;100.00;64094.34;5072467;28;20229;-56
2023/05/15 03:01:46;;;;;;;9.20;7.07;;;;;;;10.92;100.00;64091.06;5072794;28;20596;-56
2023/05/15 03:04:15;;;;;;;8.10;6.53;;;;;;;11.01;100.00;64103.44;5072556;28;20208;-56
2023/05/15 03:06:40;;;;;;;7.27;6.33;;;;;;;11.12;100.00;64114.94;5072380;28;20264;-57
2023/05/15 03:09:06;;;;;;;7.93;6.23;;;;;;;10.88;100.00;64089.22;5072394;28;20295;-56
2023/05/15 03:11:31;;;;;;;7.67;6.00;;;;;;;10.97;100.00;64094.03;5072391;28;20266;-55
2023/05/15 03:13:58;;;;;;;12.73;7.40;;;;;;;11.16;100.00;64119.88;5071809;28;20269;-56
2023/05/15 03:16:25;;;;;;;7.57;6.27;;;;;;;11.16;100.00;64119.88;5071775;28;20193;-56
2023/05/15 03:18:50;;;;;;;10.47;6.80;;;;;;;10.86;100.00;64084.50;5072346;28;20232;-56
2023/05/15 03:21:17;;;;;;;8.17;6.67;;;;;;;11.20;100.00;64124.25;5072183;28;20223;-57
2023/05/15 03:23:42;;;;;;;8.73;6.60;;;;;;;11.27;100.00;64129.41;5072190;28;20212;-58
2023/05/15 03:26:08;;;;;;;8.10;6.47;;;;;;;11.47;100.00;64151.31;5072129;28;20644;-57
2023/05/15 03:28:33;;;;;;;9.03;7.63;;;;;;;11.08;100.00;64108.03;5071991;28;20208;-56
2023/05/15 03:30:59;;;;;;;7.73;6.60;;;;;;;11.28;100.00;64130.50;5071723;28;20212;-57
2023/05/15 03:33:24;;;;;;;9.27;7.70;;;;;;;11.04;100.00;64106.19;5071806;28;20197;-55
2023/05/15 03:35:51;;;;;;;8.93;7.37;;;;;;;11.22;100.00;64125.91;5071961;28;20184;-57
2023/05/15 03:38:16;;;;;;;9.37;7.87;;;;;;;11.03;100.00;64105.63;5072226;28;20213;-57
2023/05/15 03:40:42;;;;;;;13.77;7.70;;;;;;;10.98;100.00;64100.16;5070981;28;20246;-56
2023/05/15 03:43:07;;;;;;;9.30;6.47;;;;;;;11.31;100.00;64133.25;5072016;28;20273;-57
2023/05/15 03:45:34;;;;;;;10.17;7.07;;;;;;;11.35;100.00;64138.16;5071884;28;20258;-57
2023/05/15 03:47:59;;;;;;;10.67;7.40;;;;;;;11.09;100.00;64109.69;5071782;28;20196;-57
2023/05/15 03:50:25;;;;;;;10.03;7.60;;;;;;;10.98;100.00;64098.19;5071664;28;20199;-57
2023/05/15 03:52:50;;;;;;;8.90;7.47;;;;;;;10.99;100.00;64101.25;5071707;28;20216;-57
2023/05/15 03:55:16;;;;;;;9.57;7.60;;;;;;;10.95;100.00;64097.44;5071764;28;20602;-57
2023/05/15 03:57:42;;;;;;;8.43;7.33;;;;;;;10.95;100.00;64096.88;5071851;28;20215;-57
2023/05/15 04:00:09;;;;;;;7.70;6.33;;;;;;;11.31;100.00;64133.25;5071327;28;20181;-56
2023/05/15 04:02:35;;;;;;;8.73;7.53;;;;;;;11.40;100.00;64143.66;5053639;28;20330;-57
2023/05/15 04:05:02;;;;;;;7.80;6.73;;;;;;;11.39;100.00;64142.00;5071367;28;20220;-56
2023/05/15 04:07:28;;;;;;;9.77;7.03;;;;;;;11.34;100.00;64139.59;5071627;28;20362;-58
2023/05/15 04:09:53;;;;;;;9.80;7.30;;;;;;;11.46;100.00;64147.69;5071324;28;20310;-56
2023/05/15 04:12:19;;;;;;;9.90;7.63;;;;;;;11.49;100.00;64153.50;5071454;28;20240;-58
2023/05/15 04:14:44;;;;;;;9.57;6.90;;;;;;;11.34;100.00;64136.53;5071383;28;20590;-60
2023/05/15 04:17:10;;;;;;;13.47;8.47;;;;;;;11.20;100.00;64121.75;5071580;28;20196;-59
2023/05/15 04:19:35;;;;;;;12.63;8.40;;;;;;;11.33;100.00;64133.44;5053216;28;20728;-59
2023/05/15 04:22:01;;;;;;;13.60;8.90;;;;;;;11.34;100.00;64137.06;5071392;28;20201;-59
2023/05/15 04:24:27;;;;;;;10.13;8.10;;;;;;;11.38;100.00;64141.44;5070986;28;20216;-60
2023/05/15 04:26:52;;;;;;;11.90;9.47;;;;;;;11.45;100.00;64149.09;5071010;28;20192;-60
2023/05/15 04:29:18;;;;;;;10.20;8.10;;;;;;;11.70;100.00;64174.00;5070925;28;20218;-59
2023/05/15 04:31:43;;;;;;;11.20;8.03;;;;;;;11.84;100.00;64193.31;5070616;28;20630;-59
2023/05/15 04:34:08;;;;;;;12.73;9.00;;;;;;;12.02;100.00;64213.56;5070856;28;20201;-59
2023/05/15 04:36:34;;;;;;;12.47;9.33;;;;;;;12.03;100.00;64214.13;5070795;28;20197;-60
2023/05/15 04:38:59;;;;;;;14.07;10.33;;;;;;;11.99;100.00;64207.78;5052992;28;20290;-60
2023/05/15 04:41:25;;;;;;;11.50;8.13;;;;;;;11.81;100.00;64188.03;5071051;28;20197;-59
2023/05/15 04:43:50;;;;;;;11.43;9.40;;;;;;;11.86;100.00;64192.97;5071073;28;20208;-59
2023/05/15 04:46:16;;;;;;;12.23;8.83;;;;;;;11.76;100.00;64182.56;5070790;28;20614;-59
2023/05/15 04:48:41;;;;;;;9.57;8.40;;;;;;;12.38;100.00;64249.97;5070869;28;20753;-60
2023/05/15 04:51:06;;;;;;;11.70;9.03;;;;;;;12.35;100.00;64244.16;5070138;28;20274;-62
2023/05/15 04:53:32;;;;;;;11.70;9.23;;;;;;;12.23;100.00;64231.00;5070706;28;20215;-59
2023/05/15 04:55:57;;;;;;;8.43;6.17;;;;;;;12.07;100.00;64216.53;5070669;28;20268;-60
2023/05/15 04:58:23;;;;;;;13.73;8.80;;;;;;;11.94;100.00;64202.28;5069190;28;20239;-60
2023/05/15 05:00:48;;;;;;;9.70;7.27;;;;;;;11.80;100.00;64184.41;5070638;28;20714;-61
2023/05/15 05:03:14;;;;;;;11.87;8.20;;;;;;;11.82;100.00;64191.66;5069388;28;20224;-61
2023/05/15 05:05:39;;;;;;;9.93;8.23;;;;;;;11.92;100.00;64200.09;5070535;28;20270;-61
2023/05/15 05:08:04;;;;;;;12.67;7.77;;;;;;;12.07;100.00;64216.53;5070851;28;20305;-57
2023/05/15 05:10:30;;;;;;;12.27;8.50;;;;;;;12.10;100.00;64219.28;5070539;28;20195;-56
2023/05/15 05:12:55;;;;;;;14.17;8.83;;;;;;;12.24;100.00;64232.09;5070539;28;20185;-56
2023/05/15 05:15:21;;;;;;;12.63;9.43;;;;;;;12.27;100.00;64235.38;5070455;28;20562;-56
2023/05/15 05:17:46;;;;;;;14.00;9.87;;;;;;;12.01;100.00;64206.88;5070009;28;20212;-57
2023/05/15 05:20:12;;;;;;;12.03;9.23;;;;;;;11.92;100.00;64199.56;5070037;28;20197;-57
2023/05/15 05:22:38;;;;;;;13.33;10.67;;;;;;;12.05;100.00;64211.28;5068177;28;20264;-56
2023/05/15 05:25:05;;;;;;;13.47;8.97;;;;;;;12.24;100.00;64232.09;5067948;28;20204;-58
2023/05/15 05:27:31;;;;;;;12.03;8.77;;;;;;;12.07;100.00;64216.53;5068928;28;20200;-56
2023/05/15 05:29:56;;;;;;;11.90;8.50;;;;;;;12.16;100.00;64228.94;5070166;28;20783;-56
2023/05/15 05:32:21;;;;;;;11.93;9.20;;;;;;;12.19;100.00;64229.13;5068750;28;20216;-57
2023/05/15 05:34:47;;;;;;;12.93;9.13;;;;;;;12.24;100.00;64232.09;5069944;28;20209;-57
2023/05/15 05:37:13;;;;;;;16.30;11.13;;;;;;;12.25;100.00;64238.25;5070260;28;20211;-57
2023/05/15 05:39:38;;;;;;;17.07;11.07;;;;;;;12.43;100.00;64255.47;5070070;28;20572;-57
2023/05/15 05:42:04;;;;;;;15.63;9.93;;;;;;;12.51;100.00;64261.69;5070085;28;20238;-56
2023/05/15 05:44:29;;;;;;;14.70;10.43;;;;;;;12.55;100.00;64269.16;5069905;28;20200;-57
2023/05/15 05:46:55;;;;;;;18.23;10.67;;;;;;;12.70;100.00;64285.06;5070236;28;20208;-66
2023/05/15 05:49:20;;;;;;;13.27;9.93;;;;;;;12.68;100.00;64285.41;5069961;28;20196;-56
2023/05/15 05:51:46;;;;;;;13.27;9.70;;;;;;;13.17;100.00;64334.13;5069929;28;20628;-57
2023/05/15 05:54:13;;;;;;;15.65;10.60;;;;;;;13.12;100.00;64330.63;5068440;28;20209;-58
2023/05/15 05:56:40;;;;;;;13.67;9.83;;;;;;;13.04;100.00;64321.84;5068560;28;20185;-57
2023/05/15 05:59:05;;;;;;;18.10;12.03;;;;;;;13.13;100.00;64331.72;5069734;28;20611;-57
2023/05/15 06:01:31;;;;;;;16.45;12.32;;;;;;;12.99;100.00;64313.81;5069764;28;20651;-57
2023/05/15 06:03:56;;;;;;;17.40;11.83;;;;;;;12.91;100.00;64308.09;5070909;28;20213;-57
2023/05/15 06:06:22;;;;;;;15.93;11.33;;;;;;;12.90;100.00;64304.50;5073449;28;20192;-57
2023/05/15 06:08:47;;;;;;;21.00;11.80;;;;;;;12.86;100.00;64299.53;5073114;28;20590;-56
2023/05/15 06:11:13;;;;;;;18.50;11.30;;;;;;;12.86;100.00;64302.63;5072845;28;20205;-57
2023/05/15 06:13:39;;;;;;;17.73;10.20;;;;;;;12.85;100.00;64304.06;5073100;28;20212;-57
2023/05/15 06:16:05;;;;;;;17.83;11.73;;;;;;;12.97;100.00;64312.16;5073207;28;20181;-58
2023/05/15 06:18:30;;;;;;;15.30;11.27;;;;;;;13.15;100.00;64331.41;5073152;28;20214;-57
2023/05/15 06:20:59;;;;;;;17.87;12.63;;;;;;;13.00;100.00;64319.97;5073116;28;20647;-56
2023/05/15 06:23:25;;;;;;;19.03;12.17;;;;;;;12.96;100.00;64313.03;5073061;28;20239;-57
2023/05/15 06:25:50;;;;;;;20.97;11.87;;;;;;;12.98;100.00;64315.78;5072967;28;20192;-57
2023/05/15 06:28:16;;;;;;;18.88;11.35;;;;;;;13.01;100.00;64321.59;5072867;28;20599;-56
2023/05/15 06:30:41;;;;;;;17.97;12.10;;;;;;;13.02;100.00;64320.19;5073147;28;20230;-57
2023/05/15 06:33:07;;;;;;;16.27;11.13;;;;;;;12.97;100.00;64314.69;5073131;28;20223;-58
2023/05/15 06:35:32;;;;;;;19.17;11.80;;;;;;;13.19;100.00;64338.31;5073184;28;20185;-57
2023/05/15 06:37:57;;;;;;;14.73;10.50;;;;;;;13.27;100.00;64345.09;5072916;28;20192;-57
2023/05/15 06:40:23;;;;;;;16.40;10.50;;;;;;;13.41;100.00;64359.94;5072808;28;20242;-57
2023/05/15 06:42:48;;;;;;;15.17;11.50;;;;;;;13.34;100.00;64352.78;5072951;28;20750;-57
2023/05/15 06:45:14;;;;;;;18.13;11.20;;;;;;;13.12;100.00;64331.19;5072705;28;20670;-57
2023/05/15 06:47:40;;;;;;;17.33;11.90;;;;;;;13.29;100.00;64351.81;5072794;28;20258;-57
2023/05/15 06:50:05;;;;;;;16.90;10.20;;;;;;;13.32;100.00;64353.13;5072501;28;20236;-58
2023/05/15 06:52:31;;;;;;;13.00;10.10;;;;;;;13.50;100.00;64369.78;5072389;28;20339;-58
2023/05/15 06:54:56;;;;;;;12.90;8.97;;;;;;;13.45;100.00;64367.38;5072538;28;20219;-56
2023/05/15 06:57:22;;;;;;;12.67;8.60;;;;;;;13.46;100.00;64368.50;5072492;28;20185;-57
2023/05/15 06:59:47;;;;;;;14.30;9.37;;;;;;;13.59;100.00;64379.13;5072172;28;20295;-57
2023/05/15 07:02:13;;;;;;;11.90;9.23;;;;;;;13.77;100.00;64398.91;5072821;28;20564;-57
2023/05/15 07:04:38;;;;;;;11.13;7.77;;;;;;;13.74;100.00;64398.13;5072345;28;20216;-60
2023/05/15 07:07:04;;;;;;;13.82;8.35;;;;;;;13.79;100.00;64401.09;5072034;28;20619;-57
2023/05/15 07:09:30;;;;;;;13.52;9.02;;;;;;;13.88;100.00;64413.50;5072385;28;20270;-57
2023/05/15 07:11:55;;;;;;;11.87;8.63;;;;;;;14.06;100.00;64433.25;5072323;28;20251;-57
2023/05/15 07:14:20;;;;;;;15.05;10.25;;;;;;;14.16;100.00;64444.25;5071951;28;20715;-56
2023/05/15 07:16:46;;;;;;;14.73;10.35;;;;;;;14.22;100.00;64451.41;5072140;28;20201;-58
2023/05/15 07:19:12;;;;;;;14.25;10.02;;;;;;;14.03;100.00;64430.53;5072043;28;20201;-56
2023/05/15 07:21:38;;;;;;;14.13;8.90;;;;;;;13.96;100.00;64420.31;5072099;28;20197;-57
2023/05/15 07:24:04;;;;;;;14.23;9.98;;;;;;;14.00;100.00;64429.75;5072439;28;20305;-57
2023/05/15 07:26:31;;;;;;;13.77;10.27;;;;;;;14.00;100.00;64424.13;5072054;28;20667;-57
2023/05/15 07:28:57;;;;;;;15.40;10.77;;;;;;;14.07;100.00;64431.84;5071986;28;20223;-58
2023/05/15 07:31:22;;;;;;;16.93;11.27;;;;;;;14.09;100.00;64437.13;5071973;28;20221;-57
2023/05/15 07:33:48;;;;;;;18.27;12.23;;;;;;;14.15;100.00;64441.19;5071728;28;20262;-57
2023/05/15 07:36:13;;;;;;;15.30;10.67;;;;;;;14.19;100.00;64448.09;5071737;28;20258;-58
2023/05/15 07:38:39;;;;;;;17.92;11.40;;;;;;;14.08;100.00;64433.47;5071662;28;20205;-57
2023/05/15 07:41:04;;;;;;;19.07;13.57;;;;;;;14.26;100.00;64452.72;5071731;28;20191;-58
2023/05/15 07:43:29;;;;;;;18.58;12.20;;;;;;;14.16;100.00;64444.81;5071730;28;20201;-57
2023/05/15 07:45:55;;;;;;;15.00;11.43;;;;;;;14.11;100.00;64436.22;5071649;28;20677;-58
2023/05/15 07:48:21;;;;;;;16.55;11.57;;;;;;;14.25;100.00;64451.59;5071777;28;20311;-57
2023/05/15 07:50:46;;;;;;;16.10;11.53;;;;;;;14.39;100.00;64471.53;5071525;28;20694;-58
2023/05/15 07:53:15;;;;;;;20.30;11.80;;;;;;;14.26;100.00;64455.78;5071745;28;20208;-56
2023/05/15 07:55:41;;;;;;;19.25;11.95;;;;;;;14.16;100.00;64439.72;5071589;28;20231;-57
2023/05/15 07:58:07;;;;;;;17.85;12.38;;;;;;;14.13;100.00;64438.44;5071504;28;20213;-57
2023/05/15 08:00:33;;;;;;;17.52;11.70;;;;;;;14.08;100.00;64433.47;5071906;28;20188;-58
2023/05/15 08:02:58;;;;;;;16.65;12.48;;;;;;;14.02;100.00;64428.88;5071262;28;20243;-60
2023/05/15 08:05:24;;;;;;;19.35;12.10;;;;;;;14.03;100.00;64427.44;5071542;28;20693;-58
2023/05/15 08:07:50;;;;;;;18.48;11.57;;;;;;;13.94;100.00;64418.09;5071564;28;20284;-58
2023/05/15 08:10:15;;;;;;;18.87;13.50;;;;;;;14.00;100.00;64424.13;5071267;28;20185;-59
2023/05/15 08:12:45;;;;;;;19.92;13.10;;;;;;;13.85;100.00;64407.69;5071462;28;20224;-58
2023/05/15 08:15:11;;;;;;;22.83;14.00;;;;;;;13.75;100.00;64397.25;5071306;28;20185;-57
2023/05/15 08:17:36;;;;;;;15.63;11.97;;;;;;;13.79;100.00;64403.63;5071363;28;20215;-56
2023/05/15 08:20:03;;;;;;;20.70;13.40;;;;;;;13.81;100.00;64406.38;5071037;28;20245;-57
2023/05/15 08:22:29;;;;;;;18.50;12.90;;;;;;;13.89;100.00;64415.16;5071159;28;20686;-56
2023/05/15 08:24:54;;;;;;;20.00;14.10;;;;;;;13.94;100.00;64417.56;5071061;28;20205;-56
2023/05/15 08:27:20;;;;;;;21.97;14.00;;;;;;;13.98;100.00;64425.03;5070581;28;20200;-58
2023/05/15 08:29:46;;;;;;;22.30;13.77;;;;;;;14.10;100.00;64438.22;5070974;28;20294;-58
2023/05/15 08:32:11;;;;;;;18.15;13.02;;;;;;;14.19;100.00;64445.03;5071325;28;20675;-58
2023/05/15 08:34:37;;;;;;;22.48;13.60;;;;;;;14.20;100.00;64448.66;5070990;28;20211;-57
2023/05/15 08:37:03;;;;;;;18.65;12.80;;;;;;;14.19;100.00;64450.66;5071039;28;20200;-57
2023/05/15 08:39:28;;;;;;;17.57;11.07;;;;;;;14.22;100.00;64448.84;5053107;28;20201;-56
2023/05/15 08:42:15;;;;;;;15.52;11.25;;;;;;;14.31;100.00;64460.75;5070968;28;20188;-57
2023/05/15 08:44:41;;;;;;;17.37;11.67;;;;;;;14.47;100.00;64475.25;5071036;28;20201;-58
2023/05/15 08:47:14;;;;;;;18.52;11.02;;;;;;;14.51;100.00;64484.72;5071221;28;20717;-59
2023/05/15 08:50:03;;;;;;;14.13;10.70;;;;;;;14.65;100.00;64495.03;5070900;28;20219;-60
2023/05/15 08:52:29;;;;;;;13.37;10.47;;;;;;;14.59;100.00;64489.00;5071131;28;20308;-58
2023/05/15 08:54:55;;;;;;;17.88;11.45;;;;;;;14.62;100.00;64492.28;5070520;28;20213;-57
2023/05/15 08:57:21;;;;;;;13.68;9.45;;;;;;;14.56;100.00;64485.69;5070891;28;20192;-66
2023/05/15 08:59:48;;;;;;;13.38;9.50;;;;;;;14.37;100.00;64464.25;5070447;28;20208;-57
2023/05/15 09:02:15;;;;;;;15.20;10.18;;;;;;;14.38;100.00;64467.91;5070763;28;20201;-58
2023/05/15 09:04:40;;;;;;;14.10;11.35;;;;;;;14.29;100.00;64456.03;5070674;28;20279;-58
2023/05/15 09:07:06;;;;;;;15.17;10.47;;;;;;;14.21;100.00;64447.78;5070513;28;20525;-58
2023/05/15 09:09:33;;;;;;;16.93;10.63;;;;;;;14.28;100.00;64457.47;5070399;28;20208;-60
2023/05/15 09:12:01;;;;;;;18.97;11.60;;;;;;;14.22;100.00;64448.84;5070660;28;20229;-60
2023/05/15 09:14:26;;;;;;;19.87;12.37;;;;;;;14.07;100.00;64434.38;5070344;28;20201;-63
2023/05/15 09:16:52;;;;;;;17.00;11.63;;;;;;;14.10;100.00;64440.75;5070516;28;20318;-62
2023/05/15 09:19:22;;;;;;;16.43;12.77;;;;;;;14.26;100.00;64453.25;5070211;28;20212;-62
2023/05/15 09:21:48;;;;;;;19.37;12.40;;;;;;;14.17;100.00;64443.38;5070472;28;20216;-61
2023/05/15 09:24:17;;;;;;;21.10;13.53;;;;;;;14.25;100.00;64451.59;5070086;28;20204;-60
2023/05/15 09:27:00;;;;;;;20.48;14.05;;;;;;;14.38;100.00;64465.38;5070406;28;20215;-61
2023/05/15 09:29:26;;;;;;;18.97;13.30;;;;;;;14.47;100.00;64477.78;5070407;28;20235;-61
2023/05/15 09:31:52;;;;;;;21.20;12.50;;;;;;;14.52;100.00;64483.84;5070192;28;20666;-61
2023/05/15 09:34:17;;;;;;;18.45;13.65;;;;;;;14.63;100.00;64493.38;5069924;28;20225;-62
2023/05/15 09:36:45;;;;;;;25.77;13.07;;;;;;;14.62;100.00;64494.28;5070330;28;20192;-60
2023/05/15 09:39:11;;;;;;;16.23;11.73;;;;;;;14.66;100.00;64499.22;5071900;28;20296;-60
2023/05/15 09:41:41;;;;;;;17.02;12.50;;;;;;;14.85;100.00;64520.09;5073624;28;20624;-59
2023/05/15 09:44:17;;;;;;;19.15;13.50;;;;;;;14.99;100.00;64537.47;5073836;28;20254;-60
2023/05/15 09:46:43;;;;;;;17.48;12.10;;;;;;;14.72;100.00;64502.72;5073505;28;20196;-59
2023/05/15 09:49:08;;;;;;;16.43;12.97;;;;;;;15.02;100.00;64536.25;5073407;28;20205;-60
2023/05/15 09:51:33;;;;;;;17.40;12.25;;;;;;;15.15;100.00;64549.97;5073427;28;20227;-60
2023/05/15 09:53:59;;;;;;;18.77;11.50;;;;;;;15.29;100.00;64564.84;5073423;28;20291;-61
2023/05/15 09:56:25;;;;;;;14.88;11.40;;;;;;;15.17;100.00;64554.19;5073386;28;20276;-60
2023/05/15 09:58:58;;;;;;;18.85;11.30;;;;;;;14.85;100.00;64520.09;5073262;28;20213;-60
2023/05/15 10:01:24;;;;;;;14.40;10.25;;;;;;;15.03;100.00;64542.44;5073149;28;20192;-60
2023/05/15 10:04:00;;;;;;;18.75;11.48;;;;;;;15.08;100.00;64542.84;5072278;28;20200;-60
2023/05/15 10:06:37;;;;;;;14.50;10.40;;;;;;;15.14;100.00;64548.91;5072792;28;20200;-61
2023/05/15 10:09:03;;;;;;;15.38;10.40;;;;;;;15.15;100.00;64547.44;5073264;28;20239;-60
2023/05/15 10:11:32;;;;;;;15.75;11.35;;;;;;;15.15;100.00;64549.97;5072001;28;20245;-60
2023/05/15 10:13:58;;;;;;;18.30;11.07;;;;;;;15.10;100.00;64544.50;5072773;28;20197;-61
2023/05/15 10:16:24;;;;;;;17.45;12.88;;;;;;;15.11;100.00;64545.59;5073153;28;20206;-61
2023/05/15 10:18:51;;;;;;;15.88;11.85;;;;;;;15.19;100.00;64556.91;5073185;28;20196;-60
2023/05/15 10:21:19;;;;;;;18.77;12.35;;;;;;;15.35;100.00;64574.50;5073222;28;20180;-60
2023/05/15 10:23:46;;;;;;;13.98;11.10;;;;;;;15.27;100.00;64563.19;5073125;28;20251;-60
2023/05/15 10:26:32;;;;;;;16.90;12.02;;;;;;;15.15;100.00;64552.53;5073468;28;20169;-60
2023/05/15 10:28:59;;;;;;;15.60;11.73;;;;;;;15.24;100.00;64559.34;5072602;28;20224;-60
2023/05/15 10:31:25;;;;;;;15.32;11.43;;;;;;;15.19;100.00;64556.38;5073112;28;20560;-62
2023/05/15 10:33:54;;;;;;;14.10;10.10;;;;;;;15.26;100.00;64564.63;5073059;28;20295;-59
2023/05/15 10:36:19;;;;;;;16.20;11.07;;;;;;;15.20;100.00;64555.50;5054979;28;20565;-59
2023/05/15 10:38:46;;;;;;;19.20;11.70;;;;;;;15.15;100.00;64550.53;5073027;28;20197;-59
2023/05/15 10:41:13;;;;;;;15.57;10.47;;;;;;;15.12;100.00;64544.72;5072749;28;20272;-61
2023/05/15 10:43:41;;;;;;;19.77;11.70;;;;;;;15.18;100.00;64553.28;5072685;28;20212;-61
2023/05/15 10:46:07;;;;;;;16.92;11.43;;;;;;;15.34;100.00;64570.88;5072760;28;20177;-61
2023/05/15 10:48:34;;;;;;;14.02;10.82;;;;;;;15.21;100.00;64553.50;5080100;22;20224;-60
2023/05/15 10:51:02;;;;;;;13.32;10.23;;;;;;;15.49;100.00;64589.41;5071957;28;20211;-59
2023/05/15 10:53:28;;;;;;;16.30;9.77;;;;;;;15.34;100.00;64573.44;5072706;28;20346;-61
2023/05/15 10:55:53;;;;;;;13.55;9.43;;;;;;;15.33;100.00;64569.78;5072539;28;20644;-60
2023/05/15 10:58:23;;;;;;;14.18;9.38;;;;;;;15.29;100.00;64564.84;5072502;28;20213;-64
2023/05/15 11:00:48;;;;;;;13.38;9.85;;;;;;;15.20;100.00;64557.47;5072619;28;20658;-61
2023/05/15 11:03:15;;;;;;;13.25;9.18;;;;;;;14.96;100.00;64529.66;5072622;28;20312;-60
2023/05/15 11:06:07;;;;;;;16.73;9.82;;;;;;;15.03;100.00;64539.88;5072412;28;20304;-60
2023/05/15 11:08:34;;;;;;;12.63;8.82;;;;;;;14.96;100.00;64529.66;5072629;28;20209;-60
2023/05/15 11:11:00;;;;;;;12.07;9.45;;;;;;;15.00;100.00;64534.06;5072189;28;20228;-60
2023/05/15 11:13:25;;;;;;;12.75;10.18;;;;;;;15.00;100.00;64534.06;5072509;28;20209;-61
2023/05/15 11:15:51;;;;;;;15.88;9.82;;;;;;;15.03;100.00;64539.88;5070916;28;20191;-61